Time;durP1;ratioP1;P1;durP2;ratioP2;P2;SDS_P1;SDS_P2;PMS_P1;PMS_P2;Temp;Humidity;BMP_temperature;BMP_pressure;BME280_temperature;BME280_humidity;BME280_pressure;Samples;Min_cycle;Max_cycle;Signal;HPM_P1;HPM_P2
2023/02/02 00:01:58;;;;;;;4.77;2.70;;;5.90;99.90;;;;;;4968467;28;20475;-81
2023/02/02 00:04:27;;;;;;;10.97;3.43;;;5.90;99.90;;;;;;4971577;28;20469;-80
2023/02/02 00:06:55;;;;;;;10.43;2.87;;;5.80;99.90;;;;;;4974813;28;20485;-80
2023/02/02 00:09:23;;;;;;;4.43;3.10;;;5.80;99.90;;;;;;4975369;28;20966;-82
2023/02/02 00:11:51;;;;;;;5.30;2.77;;;5.80;99.90;;;;;;4970401;28;20478;-81
2023/02/02 00:14:18;;;;;;;8.07;3.50;;;5.80;99.90;;;;;;4973501;28;20477;-80
2023/02/02 00:16:47;;;;;;;7.97;3.57;;;5.80;99.90;;;;;;4974542;28;20492;-81
2023/02/02 00:19:15;;;;;;;6.53;3.50;;;5.90;99.90;;;;;;4971156;28;20458;-81
2023/02/02 00:21:43;;;;;;;4.43;3.00;;;5.90;99.90;;;;;;4976739;28;20541;-81
2023/02/02 00:24:11;;;;;;;5.60;3.57;;;6.00;99.90;;;;;;4975096;28;20561;-82
2023/02/02 00:26:40;;;;;;;7.80;3.40;;;6.00;99.90;;;;;;4974477;28;20489;-81
2023/02/02 00:29:13;;;;;;;5.93;4.33;;;6.00;99.90;;;;;;4968044;28;20492;-81
2023/02/02 00:31:40;;;;;;;7.50;4.30;;;6.00;99.90;;;;;;4972250;28;20480;-80
2023/02/02 00:34:06;;;;;;;8.03;4.90;;;6.10;99.90;;;;;;4966759;28;20470;-79
2023/02/02 00:36:33;;;;;;;6.83;4.87;;;6.10;99.90;;;;;;4972828;28;20509;-81
2023/02/02 00:39:00;;;;;;;6.57;4.30;;;6.00;99.90;;;;;;4972310;28;20951;-80
2023/02/02 00:41:27;;;;;;;7.20;4.03;;;6.00;99.90;;;;;;4975182;28;20511;-79
2023/02/02 00:46:39;;;;;;;13.20;3.93;;;6.00;99.90;;;;;;4968474;28;20459;-79
2023/02/02 00:49:06;;;;;;;8.60;6.57;;;6.10;99.90;;;;;;4975785;28;20494;-77
2023/02/02 00:51:33;;;;;;;9.30;6.27;;;6.10;99.90;;;;;;4963803;28;21012;-79
2023/02/02 00:53:59;;;;;;;5.90;4.57;;;6.10;99.90;;;;;;4972244;28;20546;-80
2023/02/02 00:56:26;;;;;;;11.43;5.00;;;6.10;99.90;;;;;;4972156;28;20475;-79
2023/02/02 00:58:53;;;;;;;5.67;4.20;;;6.10;99.90;;;;;;4979641;28;20536;-78
2023/02/02 01:01:21;;;;;;;9.60;4.37;;;6.10;99.90;;;;;;4978058;28;20967;-79
2023/02/02 01:03:50;;;;;;;9.30;4.73;;;6.20;99.90;;;;;;4981100;28;20517;-79
2023/02/02 01:06:17;;;;;;;7.67;3.70;;;6.30;99.90;;;;;;4975716;28;20498;-79
2023/02/02 01:08:44;;;;;;;9.60;4.13;;;6.20;99.90;;;;;;4981142;28;20494;-79
2023/02/02 01:11:11;;;;;;;7.00;3.00;;;6.20;99.90;;;;;;4975590;28;20471;-80
2023/02/02 01:13:38;;;;;;;6.93;3.30;;;6.30;99.90;;;;;;4976374;28;20931;-77
2023/02/02 01:16:06;;;;;;;6.93;3.10;;;6.30;99.90;;;;;;4975338;28;20493;-78
2023/02/02 01:18:33;;;;;;;6.30;2.90;;;6.30;99.90;;;;;;4975188;28;20475;-79
2023/02/02 01:21:04;;;;;;;4.90;2.57;;;6.40;99.90;;;;;;4973120;28;21047;-79
2023/02/02 01:23:31;;;;;;;4.80;2.40;;;6.30;99.90;;;;;;4971332;28;20477;-78
2023/02/02 01:26:00;;;;;;;8.10;2.67;;;6.30;99.90;;;;;;4969013;28;20510;-80
2023/02/02 01:28:27;;;;;;;4.80;2.33;;;6.40;99.90;;;;;;4975400;28;20494;-79
2023/02/02 01:30:54;;;;;;;7.83;2.93;;;6.40;99.90;;;;;;4976339;28;20824;-79
2023/02/02 01:33:21;;;;;;;5.17;2.60;;;6.40;99.90;;;;;;4969246;28;20476;-80
2023/02/02 01:35:49;;;;;;;7.67;2.97;;;6.40;99.90;;;;;;4973325;28;20474;-79
2023/02/02 01:38:17;;;;;;;6.10;3.47;;;6.40;99.90;;;;;;4975201;28;20458;-79
2023/02/02 01:40:46;;;;;;;4.23;3.20;;;6.50;99.90;;;;;;4975706;28;20490;-78
2023/02/02 01:43:24;;;;;;;12.43;3.50;;;6.50;99.90;;;;;;4967809;28;20465;-78
2023/02/02 01:45:51;;;;;;;6.00;3.20;;;6.50;99.90;;;;;;4968999;28;20466;-78
2023/02/02 01:48:20;;;;;;;9.23;3.90;;;6.60;99.90;;;;;;4973214;28;20462;-78
2023/02/02 01:50:50;;;;;;;10.03;3.97;;;6.60;99.90;;;;;;4978028;28;20478;-78
2023/02/02 01:53:19;;;;;;;4.83;3.13;;;6.60;99.90;;;;;;4975366;28;20913;-78
2023/02/02 01:55:48;;;;;;;9.10;4.00;;;6.60;99.90;;;;;;4977730;28;20849;-79
2023/02/02 01:58:19;;;;;;;8.00;3.40;;;6.70;99.90;;;;;;4977358;28;20461;-79
2023/02/02 02:00:46;;;;;;;8.47;3.53;;;6.70;99.90;;;;;;4980037;28;20509;-79
2023/02/02 02:03:15;;;;;;;9.57;3.97;;;6.70;99.90;;;;;;4977860;28;20470;-78
2023/02/02 02:05:47;;;;;;;8.87;4.73;;;6.70;99.90;;;;;;4971726;28;21051;-79
2023/02/02 02:08:19;;;;;;;13.90;4.70;;;6.70;99.90;;;;;;4978744;28;20468;-79
2023/02/02 02:10:47;;;;;;;13.87;4.97;;;6.80;99.90;;;;;;4977019;28;20979;-81
2023/02/02 02:13:15;;;;;;;14.93;5.97;;;6.80;99.90;;;;;;4977572;28;20505;-78
2023/02/02 02:18:40;;;;;;;10.20;5.57;;;6.80;99.90;;;;;;4977317;28;21035;-77
2023/02/02 02:28:17;;;;;;;17.63;7.60;;;6.90;99.90;;;;;;4972169;28;20533;-79
2023/02/02 02:31:10;;;;;;;12.37;5.80;;;7.00;99.90;;;;;;4974943;28;20476;-79
2023/02/02 02:33:48;;;;;;;12.53;6.23;;;6.90;99.90;;;;;;4977460;28;20542;-79
2023/02/02 02:36:19;;;;;;;27.60;7.53;;;7.00;99.90;;;;;;4978010;28;21006;-79
2023/02/02 02:38:54;;;;;;;16.50;7.00;;;6.90;99.90;;;;;;4970340;28;20456;-78
2023/02/02 02:41:23;;;;;;;19.83;6.63;;;6.90;99.90;;;;;;4976027;28;20850;-78
2023/02/02 02:43:55;;;;;;;21.37;6.70;;;7.00;99.90;;;;;;4970024;28;20851;-78
2023/02/02 02:46:23;;;;;;;18.23;6.77;;;7.00;99.90;;;;;;4969911;28;20518;-78
2023/02/02 02:48:51;;;;;;;18.40;6.90;;;7.00;99.90;;;;;;4975152;28;20495;-78
2023/02/02 02:51:44;;;;;;;25.33;6.20;;;6.90;99.90;;;;;;4972358;28;20470;-77
2023/02/02 02:54:12;;;;;;;20.87;5.77;;;6.90;99.90;;;;;;4972489;28;20461;-79
2023/02/02 02:56:54;;;;;;;15.97;6.17;;;6.90;99.90;;;;;;4977169;28;20582;-79
2023/02/02 02:59:33;;;;;;;21.93;6.40;;;7.00;99.90;;;;;;4972959;28;20477;-79
2023/02/02 03:02:15;;;;;;;14.60;6.40;;;6.90;99.90;;;;;;4968482;28;20471;-78
2023/02/02 03:04:50;;;;;;;14.80;4.20;;;6.90;99.90;;;;;;4970821;28;20565;-78
2023/02/02 03:07:23;;;;;;;18.93;7.37;;;6.90;99.90;;;;;;4967905;28;20495;-78
2023/02/02 03:09:52;;;;;;;11.57;4.13;;;6.90;99.90;;;;;;4973121;28;20500;-77
2023/02/02 03:12:19;;;;;;;8.53;3.43;;;6.90;99.90;;;;;;4967876;28;20477;-78
2023/02/02 03:14:46;;;;;;;12.43;4.77;;;6.90;99.90;;;;;;4975409;28;20561;-78
2023/02/02 03:17:13;;;;;;;22.47;5.63;;;6.90;99.90;;;;;;4975510;28;20494;-78
2023/02/02 03:19:40;;;;;;;17.53;3.80;;;6.90;99.90;;;;;;4976784;28;20457;-78
2023/02/02 03:22:08;;;;;;;13.03;5.40;;;6.80;99.90;;;;;;4976396;28;20471;-78
2023/02/02 03:24:35;;;;;;;13.20;4.33;;;6.80;99.90;;;;;;4969070;28;20936;-78
2023/02/02 03:27:02;;;;;;;7.13;3.50;;;6.90;99.90;;;;;;4975901;28;20558;-78
2023/02/02 03:29:29;;;;;;;13.03;3.37;;;6.80;99.90;;;;;;4976084;28;20836;-77
2023/02/02 03:31:56;;;;;;;6.10;2.87;;;6.80;99.90;;;;;;4972513;28;20560;-78
2023/02/02 03:34:23;;;;;;;6.17;2.77;;;6.80;99.90;;;;;;4971045;28;20465;-79
2023/02/02 03:36:50;;;;;;;12.03;2.87;;;6.80;99.90;;;;;;4973296;28;20538;-79
2023/02/02 03:39:18;;;;;;;11.20;3.53;;;6.80;99.90;;;;;;4971914;28;20549;-78
2023/02/02 03:41:44;;;;;;;7.70;3.93;;;6.80;99.90;;;;;;4972220;28;21066;-79
2023/02/02 03:44:11;;;;;;;8.60;3.90;;;6.70;99.90;;;;;;4969469;28;20470;-79
2023/02/02 03:46:38;;;;;;;9.80;2.93;;;6.80;99.90;;;;;;4967708;28;21007;-79
2023/02/02 03:49:05;;;;;;;16.23;3.40;;;6.80;99.90;;;;;;4975601;28;20513;-78
2023/02/02 03:51:32;;;;;;;5.77;2.47;;;6.80;99.90;;;;;;4975105;28;20560;-80
2023/02/02 03:53:58;;;;;;;18.83;3.90;;;6.80;99.90;;;;;;4971025;28;20471;-77
2023/02/02 03:56:27;;;;;;;18.27;4.77;;;6.90;99.90;;;;;;4964924;28;20480;-78
2023/02/02 03:58:53;;;;;;;10.17;3.20;;;6.80;99.90;;;;;;4973384;28;20989;-78
2023/02/02 04:01:27;;;;;;;18.07;3.80;;;6.90;99.90;;;;;;4975189;28;20561;-78
2023/02/02 04:03:54;;;;;;;10.53;3.80;;;6.80;99.90;;;;;;4975160;28;20528;-77
2023/02/02 04:06:21;;;;;;;9.17;3.37;;;6.90;99.90;;;;;;4973405;28;20495;-78
2023/02/02 04:08:48;;;;;;;9.27;3.40;;;6.80;99.90;;;;;;4966665;28;20474;-79
2023/02/02 04:11:15;;;;;;;7.67;4.10;;;6.90;99.90;;;;;;4967632;28;20534;-79
2023/02/02 04:13:43;;;;;;;11.60;4.40;;;6.90;99.90;;;;;;4974548;28;20489;-79
2023/02/02 04:16:11;;;;;;;7.73;4.10;;;7.00;99.90;;;;;;4970974;28;20492;-79
2023/02/02 04:18:38;;;;;;;11.23;4.83;;;6.90;99.90;;;;;;4977375;28;20484;-79
2023/02/02 04:21:06;;;;;;;11.23;5.63;;;6.90;99.90;;;;;;4979193;28;20531;-79
2023/02/02 04:23:33;;;;;;;10.43;5.17;;;6.90;99.90;;;;;;4977852;28;20485;-79
2023/02/02 04:26:00;;;;;;;7.93;5.90;;;6.90;99.90;;;;;;4975367;28;20537;-79
2023/02/02 04:28:27;;;;;;;11.80;5.50;;;6.90;99.90;;;;;;4969700;28;20454;-79
2023/02/02 04:30:56;;;;;;;11.93;5.93;;;7.00;99.90;;;;;;4970582;28;20494;-78
2023/02/02 04:33:25;;;;;;;19.50;8.30;;;7.00;99.90;;;;;;4974544;28;20470;-79
2023/02/02 04:38:26;;;;;;;16.83;8.07;;;7.10;99.90;;;;;;5062334;23;20508;-80
2023/02/02 04:40:52;;;;;;;13.10;9.40;;;7.10;99.90;;;;;;5026409;28;22232;-77
2023/02/02 04:43:19;;;;;;;12.10;8.10;;;7.10;99.90;;;;;;5029391;28;20469;-80
2023/02/02 04:45:46;;;;;;;17.33;8.63;;;7.10;99.90;;;;;;5023767;28;20482;-77
2023/02/02 04:48:14;;;;;;;14.57;9.57;;;7.10;99.90;;;;;;5005891;28;20495;-78
2023/02/02 04:50:41;;;;;;;22.17;12.50;;;7.10;99.90;;;;;;5003206;28;20580;-80
2023/02/02 04:53:07;;;;;;;21.97;12.90;;;7.10;99.90;;;;;;5008305;28;20447;-79
2023/02/02 04:55:37;;;;;;;19.10;12.63;;;7.00;99.90;;;;;;5009591;28;20485;-79
2023/02/02 04:58:04;;;;;;;30.67;14.37;;;7.10;99.90;;;;;;5002164;28;20528;-79
2023/02/02 05:00:31;;;;;;;29.83;16.73;;;7.10;99.90;;;;;;5009293;28;21005;-79
2023/02/02 05:02:58;;;;;;;30.17;14.83;;;7.10;99.90;;;;;;5007475;28;20547;-79
2023/02/02 05:05:26;;;;;;;30.70;15.17;;;7.10;99.90;;;;;;5007083;28;20487;-79
2023/02/02 05:07:53;;;;;;;37.50;16.57;;;7.10;99.90;;;;;;5002448;28;20491;-79
2023/02/02 05:10:20;;;;;;;39.37;17.40;;;7.20;99.90;;;;;;5008651;28;20496;-79
2023/02/02 05:12:47;;;;;;;29.13;15.13;;;7.20;99.90;;;;;;5004096;28;20975;-80
2023/02/02 05:15:13;;;;;;;27.00;14.30;;;7.20;99.90;;;;;;5009875;28;20473;-80
2023/02/02 05:17:40;;;;;;;32.00;13.80;;;7.30;99.90;;;;;;5003759;28;20469;-80
2023/02/02 05:20:08;;;;;;;31.77;14.27;;;7.20;99.90;;;;;;5008781;28;20460;-78
2023/02/02 05:22:36;;;;;;;40.83;15.30;;;7.20;99.90;;;;;;5005361;28;20815;-79
2023/02/02 05:25:03;;;;;;;37.37;15.90;;;7.20;99.90;;;;;;5002677;28;20473;-79
2023/02/02 05:27:30;;;;;;;26.67;12.60;;;7.20;99.90;;;;;;5009788;28;20518;-77
2023/02/02 05:29:56;;;;;;;25.07;11.73;;;7.20;99.90;;;;;;5012409;28;20492;-80
2023/02/02 05:32:23;;;;;;;23.30;13.43;;;7.30;99.90;;;;;;5016233;28;20552;-80
2023/02/02 05:34:50;;;;;;;24.83;11.13;;;7.20;99.90;;;;;;5007769;28;20479;-79
2023/02/02 05:37:17;;;;;;;22.57;11.10;;;7.20;99.90;;;;;;5009290;28;20472;-79
2023/02/02 05:39:45;;;;;;;28.30;12.60;;;7.30;99.90;;;;;;5012074;28;20540;-79
2023/02/02 05:42:12;;;;;;;22.83;11.20;;;7.20;99.90;;;;;;5014398;28;20473;-78
2023/02/02 05:44:39;;;;;;;28.73;10.63;;;7.30;99.90;;;;;;5016461;28;20833;-78
2023/02/02 05:47:06;;;;;;;26.10;10.03;;;7.30;99.90;;;;;;5006240;28;20547;-77
2023/02/02 05:49:32;;;;;;;21.07;10.07;;;7.20;99.90;;;;;;5013048;28;20474;-79
2023/02/02 05:51:59;;;;;;;25.37;12.27;;;7.30;99.90;;;;;;5010348;28;20563;-78
2023/02/02 05:54:26;;;;;;;31.43;12.93;;;7.30;99.90;;;;;;5006673;28;20476;-78
2023/02/02 05:56:54;;;;;;;28.80;11.27;;;7.30;99.90;;;;;;5014819;28;20498;-77
2023/02/02 05:59:22;;;;;;;33.53;12.00;;;7.30;99.90;;;;;;5008577;28;20622;-79
2023/02/02 06:01:49;;;;;;;30.40;11.10;;;7.30;99.90;;;;;;5017273;28;20553;-79
2023/02/02 06:04:16;;;;;;;22.73;11.17;;;7.30;99.90;;;;;;5013774;28;20484;-81
2023/02/02 06:06:44;;;;;;;25.77;13.07;;;7.30;99.90;;;;;;5008042;28;20497;-78
2023/02/02 06:09:11;;;;;;;24.47;10.43;;;7.40;99.90;;;;;;5016327;28;20520;-79
2023/02/02 06:11:39;;;;;;;19.30;10.63;;;7.30;99.90;;;;;;5017745;28;20474;-77
2023/02/02 06:14:07;;;;;;;19.93;10.37;;;7.30;99.90;;;;;;5029892;28;20527;-80
2023/02/02 06:16:34;;;;;;;22.63;9.60;;;7.20;99.90;;;;;;5016616;28;20516;-81
2023/02/02 06:19:04;;;;;;;30.07;12.23;;;7.20;99.90;;;;;;5008757;28;20469;-79
2023/02/02 06:21:30;;;;;;;30.03;11.73;;;7.20;99.90;;;;;;5011917;28;20458;-81
2023/02/02 06:23:58;;;;;;;20.17;10.70;;;7.20;99.90;;;;;;5013351;28;20838;-79
2023/02/02 06:26:25;;;;;;;25.67;10.93;;;7.20;99.90;;;;;;5010725;28;20494;-78
2023/02/02 06:28:53;;;;;;;26.10;11.40;;;7.30;99.90;;;;;;5010305;28;20945;-78
2023/02/02 06:31:22;;;;;;;31.87;11.83;;;7.20;99.90;;;;;;5014996;28;20485;-78
2023/02/02 06:33:53;;;;;;;21.80;11.73;;;7.20;99.90;;;;;;5021420;28;20455;-78
2023/02/02 06:36:21;;;;;;;20.27;9.83;;;7.30;99.90;;;;;;5019788;28;20462;-78
2023/02/02 06:38:49;;;;;;;25.93;11.57;;;7.30;99.90;;;;;;5019817;28;20452;-78
2023/02/02 06:41:16;;;;;;;29.80;11.60;;;7.30;99.90;;;;;;5010555;28;20516;-77
2023/02/02 06:43:43;;;;;;;23.80;12.87;;;7.30;99.90;;;;;;5006204;28;20555;-77
2023/02/02 06:46:09;;;;;;;26.90;12.77;;;7.30;99.90;;;;;;5019669;28;21058;-78
2023/02/02 06:48:38;;;;;;;21.93;12.10;;;7.30;99.90;;;;;;5017923;28;20538;-78
2023/02/02 06:51:05;;;;;;;24.30;11.10;;;7.30;99.90;;;;;;5015922;28;20495;-76
2023/02/02 06:53:32;;;;;;;30.90;13.47;;;7.30;99.90;;;;;;5015873;28;20472;-79
2023/02/02 06:56:01;;;;;;;25.23;10.90;;;7.40;99.90;;;;;;5009332;28;20460;-79
2023/02/02 06:58:29;;;;;;;22.37;10.70;;;7.30;99.90;;;;;;5012006;28;21004;-79
2023/02/02 07:00:55;;;;;;;25.40;10.63;;;7.30;99.90;;;;;;5009195;28;20476;-78
2023/02/02 07:03:22;;;;;;;31.63;12.50;;;7.40;99.90;;;;;;5008636;28;20466;-78
2023/02/02 07:05:50;;;;;;;38.73;14.17;;;7.40;99.90;;;;;;5006072;28;20948;-79
2023/02/02 07:08:17;;;;;;;27.63;10.90;;;7.40;99.90;;;;;;5007230;28;20485;-78
2023/02/02 07:10:44;;;;;;;27.50;11.93;;;7.40;99.90;;;;;;5008132;28;20487;-79
2023/02/02 07:13:11;;;;;;;31.83;12.20;;;7.40;99.90;;;;;;5008408;28;20453;-79
2023/02/02 07:15:39;;;;;;;24.83;11.40;;;7.40;99.90;;;;;;5010251;28;20479;-79
2023/02/02 07:18:06;;;;;;;17.43;10.47;;;7.40;99.90;;;;;;5008804;28;20492;-77
2023/02/02 07:20:33;;;;;;;23.50;11.17;;;7.40;99.90;;;;;;5001279;28;20470;-79
2023/02/02 07:23:03;;;;;;;18.30;10.80;;;7.50;99.90;;;;;;5005321;28;20471;-79
2023/02/02 07:25:30;;;;;;;24.70;11.97;;;7.50;99.90;;;;;;5010686;28;20492;-78
2023/02/02 07:27:57;;;;;;;26.73;12.30;;;7.60;99.90;;;;;;5016406;28;20536;-78
2023/02/02 07:30:28;;;;;;;28.83;12.50;;;7.50;99.90;;;;;;5016858;28;20955;-78
2023/02/02 07:32:55;;;;;;;24.80;12.03;;;7.60;99.90;;;;;;5010473;28;20473;-77
2023/02/02 07:35:22;;;;;;;24.03;11.30;;;7.60;99.90;;;;;;5013557;28;20467;-79
2023/02/02 07:37:51;;;;;;;21.57;12.03;;;7.50;99.90;;;;;;5015468;28;20481;-78
2023/02/02 07:40:20;;;;;;;25.57;12.03;;;7.50;99.90;;;;;;5013533;28;20466;-78
2023/02/02 07:42:47;;;;;;;29.07;11.73;;;7.50;99.90;;;;;;5011756;28;20466;-78
2023/02/02 07:45:14;;;;;;;22.37;12.80;;;7.50;99.90;;;;;;5015885;28;20491;-78
2023/02/02 07:47:41;;;;;;;17.83;12.33;;;7.50;99.90;;;;;;5017868;28;20497;-77
2023/02/02 07:50:09;;;;;;;27.43;12.60;;;7.50;99.90;;;;;;5015978;28;20467;-78
2023/02/02 07:52:36;;;;;;;26.17;13.13;;;7.50;99.90;;;;;;5011306;28;20468;-80
2023/02/02 07:55:02;;;;;;;26.57;13.40;;;7.50;99.90;;;;;;5007478;28;20548;-79
2023/02/02 07:57:31;;;;;;;31.63;13.30;;;7.50;99.90;;;;;;5012350;28;20489;-79
2023/02/02 07:59:57;;;;;;;22.43;12.97;;;7.50;99.90;;;;;;5015331;28;20534;-79
2023/02/02 08:02:24;;;;;;;22.67;11.87;;;7.60;99.90;;;;;;5011230;28;20566;-79
2023/02/02 08:04:51;;;;;;;26.90;12.53;;;7.50;99.90;;;;;;5019826;28;20548;-79
2023/02/02 08:07:20;;;;;;;28.00;13.90;;;7.50;99.90;;;;;;5018050;28;20508;-79
2023/02/02 08:09:47;;;;;;;32.03;12.90;;;7.60;99.90;;;;;;5008942;28;20476;-80
2023/02/02 08:12:14;;;;;;;24.60;12.63;;;7.60;99.90;;;;;;5011304;28;20494;-79
2023/02/02 08:14:42;;;;;;;26.03;12.10;;;7.60;99.90;;;;;;5008399;28;20473;-80
2023/02/02 08:17:09;;;;;;;24.80;13.20;;;7.60;99.90;;;;;;5012032;28;20530;-79
2023/02/02 08:19:36;;;;;;;26.00;12.20;;;7.60;99.90;;;;;;5006396;28;21203;-78
2023/02/02 08:22:03;;;;;;;24.40;11.40;;;7.60;99.90;;;;;;5017522;28;20497;-79
2023/02/02 08:24:29;;;;;;;26.77;12.87;;;7.60;99.90;;;;;;5016364;28;20480;-79
2023/02/02 08:26:56;;;;;;;24.33;12.30;;;7.70;99.90;;;;;;5020218;28;20502;-78
2023/02/02 08:29:23;;;;;;;27.63;11.43;;;7.70;99.90;;;;;;5017449;28;21003;-80
2023/02/02 08:31:52;;;;;;;24.73;13.03;;;7.70;99.90;;;;;;5011342;28;20496;-80
2023/02/02 08:34:19;;;;;;;33.13;13.37;;;7.70;99.90;;;;;;5013193;28;20968;-78
2023/02/02 08:36:45;;;;;;;27.97;13.13;;;7.70;99.90;;;;;;5009465;28;20496;-79
2023/02/02 08:39:13;;;;;;;26.27;12.47;;;7.60;99.90;;;;;;5008081;28;20481;-79
2023/02/02 08:41:40;;;;;;;18.43;12.93;;;7.60;99.90;;;;;;5005778;28;20948;-78
2023/02/02 08:44:08;;;;;;;21.17;13.70;;;7.60;99.90;;;;;;5011205;28;20541;-80
2023/02/02 08:46:35;;;;;;;28.63;13.40;;;7.70;99.90;;;;;;5006220;28;20505;-80
2023/02/02 08:49:03;;;;;;;24.53;12.40;;;7.70;99.90;;;;;;5009508;28;20846;-78
2023/02/02 08:51:30;;;;;;;34.67;13.77;;;7.70;99.90;;;;;;5006936;28;20493;-79
2023/02/02 08:53:57;;;;;;;24.60;13.73;;;7.70;99.90;;;;;;5011266;28;20455;-79
2023/02/02 08:56:24;;;;;;;23.50;12.17;;;7.70;99.90;;;;;;5012895;28;20493;-80
2023/02/02 08:58:54;;;;;;;27.33;13.80;;;7.70;99.90;;;;;;5006747;28;20567;-79
2023/02/02 09:01:23;;;;;;;22.40;11.90;;;7.70;99.90;;;;;;5007980;28;20468;-80
2023/02/02 09:03:53;;;;;;;22.33;13.90;;;7.70;99.90;;;;;;5008163;28;20491;-82
2023/02/02 09:06:22;;;;;;;18.00;13.10;;;7.70;99.90;;;;;;5011455;28;20556;-80
2023/02/02 09:08:49;;;;;;;20.93;11.73;;;7.70;99.90;;;;;;5011136;28;20583;-81
2023/02/02 09:11:18;;;;;;;21.03;12.97;;;7.70;99.90;;;;;;5011113;28;20565;-80
2023/02/02 09:13:47;;;;;;;22.93;14.10;;;7.80;99.90;;;;;;5011903;28;20972;-80
2023/02/02 09:16:17;;;;;;;24.83;14.43;;;7.70;99.90;;;;;;5012198;28;20461;-81
2023/02/02 09:18:45;;;;;;;24.40;13.67;;;7.70;99.90;;;;;;5010274;28;20500;-80
2023/02/02 09:21:14;;;;;;;24.57;14.70;;;7.80;99.90;;;;;;5014175;28;20993;-79
2023/02/02 09:23:44;;;;;;;20.13;13.10;;;7.80;99.90;;;;;;5000726;28;21043;-80
2023/02/02 09:26:12;;;;;;;24.37;13.10;;;7.70;99.90;;;;;;5008187;28;20484;-81
2023/02/02 09:28:40;;;;;;;21.53;13.47;;;7.70;99.90;;;;;;5014608;28;20485;-83
2023/02/02 09:31:07;;;;;;;17.47;12.00;;;7.70;99.90;;;;;;5011322;28;20580;-80
2023/02/02 09:33:34;;;;;;;17.73;10.90;;;7.70;99.90;;;;;;5015231;28;20553;-80
2023/02/02 09:36:06;;;;;;;21.53;11.80;;;7.70;99.90;;;;;;5014665;28;20553;-81
2023/02/02 09:38:33;;;;;;;22.23;12.90;;;7.70;99.90;;;;;;5003374;28;20491;-80
2023/02/02 09:41:10;;;;;;;20.13;13.10;;;7.70;99.90;;;;;;5014187;28;20978;-78
2023/02/02 09:43:48;;;;;;;22.70;12.07;;;7.70;99.90;;;;;;5009212;28;20818;-80
2023/02/02 09:46:24;;;;;;;17.90;11.67;;;7.80;99.90;;;;;;5004163;28;20477;-80
2023/02/02 09:48:58;;;;;;;20.27;11.17;;;7.70;99.90;;;;;;5007363;28;20457;-80
2023/02/02 09:51:29;;;;;;;18.67;11.90;;;7.70;99.90;;;;;;5013773;28;20493;-80
2023/02/02 09:54:00;;;;;;;22.30;13.57;;;7.80;99.90;;;;;;5014662;28;20532;-81
2023/02/02 09:56:35;;;;;;;19.47;12.07;;;7.80;99.90;;;;;;5014434;28;20588;-82
2023/02/02 09:59:05;;;;;;;22.87;13.63;;;7.70;99.90;;;;;;5003628;28;20456;-80
2023/02/02 10:01:36;;;;;;;19.30;12.90;;;7.80;99.90;;;;;;5001086;28;20526;-81
2023/02/02 10:04:08;;;;;;;22.03;12.13;;;7.80;99.90;;;;;;5008009;28;20468;-81
2023/02/02 10:06:38;;;;;;;19.00;13.30;;;7.80;99.90;;;;;;5007701;28;20493;-79
2023/02/02 10:09:18;;;;;;;24.60;13.30;;;7.80;99.90;;;;;;5000502;28;20500;-79
2023/02/02 10:11:51;;;;;;;17.87;11.70;;;7.80;99.90;;;;;;5000772;28;21054;-79
2023/02/02 10:14:25;;;;;;;19.50;12.70;;;7.70;99.90;;;;;;5014712;28;21234;-82
2023/02/02 10:16:54;;;;;;;19.30;13.10;;;7.70;99.90;;;;;;5013291;28;20477;-79
2023/02/02 10:19:27;;;;;;;25.93;11.80;;;7.70;99.90;;;;;;5007354;28;20490;-80
2023/02/02 10:22:03;;;;;;;20.20;12.07;;;7.80;99.90;;;;;;5003348;28;20450;-80
2023/02/02 10:24:34;;;;;;;21.73;12.63;;;7.90;99.90;;;;;;5007713;28;20479;-79
2023/02/02 10:27:05;;;;;;;17.70;11.40;;;7.90;99.90;;;;;;5003292;28;20485;-79
2023/02/02 10:29:47;;;;;;;22.97;12.90;;;7.90;99.90;;;;;;5006712;28;20559;-79
2023/02/02 10:32:22;;;;;;;25.37;16.83;;;8.00;99.90;;;;;;5005407;28;20581;-79
2023/02/02 10:35:04;;;;;;;32.40;13.60;;;7.90;99.90;;;;;;5012278;28;20453;-80
2023/02/02 10:37:37;;;;;;;23.73;11.93;;;7.80;99.90;;;;;;5010645;28;20509;-80
2023/02/02 10:40:15;;;;;;;22.90;13.07;;;7.80;99.90;;;;;;5042292;22;21024;-79
2023/02/02 10:45:38;;;;;;;18.33;11.13;;;7.80;99.90;;;;;;5031315;28;20454;-78
2023/02/02 10:48:14;;;;;;;27.17;12.47;;;7.80;99.90;;;;;;5033394;28;21070;-78
2023/02/02 10:50:44;;;;;;;22.30;11.20;;;7.80;99.90;;;;;;5007565;28;20559;-77
2023/02/02 10:53:13;;;;;;;25.07;12.67;;;7.80;99.90;;;;;;5003122;28;20517;-78
2023/02/02 10:55:51;;;;;;;20.90;13.10;;;7.80;99.90;;;;;;5010127;28;20453;-78
2023/02/02 10:58:27;;;;;;;26.53;13.17;;;7.80;99.90;;;;;;5008829;28;20469;-78
2023/02/02 11:00:56;;;;;;;18.73;10.90;;;7.80;99.90;;;;;;5010144;28;20540;-77
2023/02/02 11:03:26;;;;;;;21.40;11.70;;;7.80;99.90;;;;;;5002158;28;20447;-77
2023/02/02 11:08:41;;;;;;;16.83;10.47;;;7.90;99.90;;;;;;5011018;28;20497;-78
2023/02/02 11:11:18;;;;;;;23.80;10.53;;;7.90;99.90;;;;;;5007188;28;20459;-78
2023/02/02 11:13:50;;;;;;;15.90;9.97;;;8.00;99.90;;;;;;5007906;28;20483;-78
2023/02/02 11:16:38;;;;;;;24.67;10.40;;;8.00;99.90;;;;;;5010664;28;20446;-78
2023/02/02 11:19:22;;;;;;;26.47;11.83;;;8.00;99.90;;;;;;5009615;28;21007;-78
2023/02/02 11:21:51;;;;;;;16.97;10.03;;;8.00;99.90;;;;;;5009700;28;20464;-79
2023/02/02 11:24:23;;;;;;;16.40;10.63;;;8.00;99.90;;;;;;5004350;28;20479;-79
2023/02/02 11:26:54;;;;;;;30.70;11.53;;;8.10;99.90;;;;;;5012919;28;20548;-78
2023/02/02 11:29:26;;;;;;;20.63;10.03;;;8.00;99.90;;;;;;5008279;28;20486;-79
2023/02/02 11:31:53;;;;;;;18.77;8.33;;;8.00;99.90;;;;;;5016819;28;20483;-78
2023/02/02 11:34:23;;;;;;;19.43;9.40;;;8.00;99.90;;;;;;5009154;28;20455;-78
2023/02/02 11:37:01;;;;;;;16.97;9.67;;;8.00;99.90;;;;;;5009130;28;20459;-78
2023/02/02 11:39:28;;;;;;;18.77;10.50;;;8.00;99.90;;;;;;5003953;28;20492;-78
2023/02/02 11:42:05;;;;;;;23.80;11.40;;;8.00;99.90;;;;;;5007354;28;20467;-78
2023/02/02 11:44:34;;;;;;;23.90;10.57;;;8.00;99.90;;;;;;4999776;28;20526;-78
2023/02/02 11:47:04;;;;;;;20.37;9.63;;;8.00;99.90;;;;;;5012239;28;20476;-77
2023/02/02 11:49:35;;;;;;;23.27;10.60;;;8.00;99.90;;;;;;4999872;28;20469;-78
2023/02/02 11:52:16;;;;;;;20.47;10.63;;;8.10;99.90;;;;;;5007068;28;20526;-78
2023/02/02 11:54:47;;;;;;;15.43;8.53;;;8.10;99.90;;;;;;5008178;28;20450;-78
2023/02/02 11:57:18;;;;;;;16.20;8.53;;;8.10;99.90;;;;;;5000530;28;21163;-77
2023/02/02 11:59:48;;;;;;;12.00;8.70;;;8.10;99.90;;;;;;5007046;28;20482;-77
2023/02/02 12:02:25;;;;;;;26.70;10.23;;;8.10;99.90;;;;;;5005995;28;20499;-78
2023/02/02 12:04:54;;;;;;;32.27;9.10;;;8.10;99.90;;;;;;4999857;28;20549;-78
2023/02/02 12:07:26;;;;;;;17.67;9.07;;;8.10;99.90;;;;;;4997518;28;20453;-78
2023/02/02 12:09:57;;;;;;;13.53;8.40;;;8.20;99.90;;;;;;5009576;28;20568;-78
2023/02/02 12:12:36;;;;;;;14.13;7.93;;;8.20;99.90;;;;;;5012908;28;20478;-78
2023/02/02 12:15:15;;;;;;;19.33;8.30;;;8.20;99.90;;;;;;5005441;28;20521;-78
2023/02/02 12:17:44;;;;;;;22.30;7.80;;;8.20;99.90;;;;;;5009659;28;20520;-77
2023/02/02 12:20:26;;;;;;;13.33;8.27;;;8.30;99.90;;;;;;5005717;28;20495;-78
2023/02/02 12:23:10;;;;;;;20.00;10.13;;;8.20;99.90;;;;;;5004455;28;20442;-78
2023/02/02 12:25:49;;;;;;;17.60;8.37;;;8.20;99.90;;;;;;5001055;28;20462;-79
2023/02/02 12:28:29;;;;;;;16.73;8.97;;;8.10;99.90;;;;;;5013614;28;20457;-78
2023/02/02 12:31:07;;;;;;;16.60;7.63;;;8.10;99.90;;;;;;5009070;28;20465;-79
2023/02/02 12:33:41;;;;;;;14.80;8.27;;;8.10;99.90;;;;;;5008989;28;21095;-79
2023/02/02 12:36:20;;;;;;;17.73;7.87;;;8.20;99.90;;;;;;5000407;28;20481;-79
2023/02/02 12:39:05;;;;;;;16.97;9.37;;;8.20;99.90;;;;;;5004190;28;20512;-79
2023/02/02 12:41:43;;;;;;;17.40;9.57;;;8.10;99.90;;;;;;5009335;28;20466;-78
2023/02/02 12:44:18;;;;;;;19.80;9.47;;;8.10;99.90;;;;;;4995311;28;20541;-78
2023/02/02 12:46:57;;;;;;;17.50;10.80;;;8.10;99.90;;;;;;5001343;28;20468;-78
2023/02/02 12:49:47;;;;;;;27.17;12.00;;;8.10;99.90;;;;;;5005073;28;20486;-78
2023/02/02 12:52:28;;;;;;;18.63;10.33;;;8.00;99.90;;;;;;5000792;28;20505;-78
2023/02/02 12:55:10;;;;;;;19.90;12.00;;;8.00;99.90;;;;;;5003136;28;20489;-78
2023/02/02 12:57:52;;;;;;;13.23;10.10;;;8.10;99.90;;;;;;5002817;28;20836;-78
2023/02/02 13:00:51;;;;;;;22.60;13.30;;;8.00;99.90;;;;;;5005026;28;20523;-78
2023/02/02 13:03:28;;;;;;;15.83;11.60;;;8.10;99.90;;;;;;5003384;28;20451;-78
2023/02/02 13:06:14;;;;;;;20.70;10.70;;;8.10;99.90;;;;;;4999771;28;20474;-78
2023/02/02 13:08:46;;;;;;;23.30;13.67;;;8.10;99.90;;;;;;4999322;28;20473;-78
2023/02/02 13:11:32;;;;;;;26.00;13.67;;;8.10;99.90;;;;;;5006411;28;20455;-79
2023/02/02 13:14:08;;;;;;;20.30;13.60;;;8.10;99.90;;;;;;5002057;28;20548;-78
2023/02/02 13:16:38;;;;;;;23.13;14.70;;;8.10;99.90;;;;;;5008320;28;20451;-78
2023/02/02 13:19:10;;;;;;;22.50;14.77;;;8.10;99.90;;;;;;5008560;28;20469;-77